createdAt,value
2018-01-17T00:00:03.491Z,4.70
2018-01-17T00:02:30.942Z,4.90
2018-01-17T00:04:58.406Z,4.60
2018-01-17T00:07:25.864Z,4.90
2018-01-17T00:09:53.306Z,5.00
2018-01-17T00:12:21.529Z,4.63
2018-01-17T00:14:48.989Z,5.07
2018-01-17T00:17:16.433Z,5.13
2018-01-17T00:19:43.879Z,4.63
2018-01-17T00:22:11.329Z,4.50
2018-01-17T00:24:38.772Z,5.30
2018-01-17T00:27:07.796Z,5.87
2018-01-17T00:29:35.247Z,5.80
2018-01-17T00:32:03.456Z,5.30
2018-01-17T00:34:30.905Z,5.43
2018-01-17T00:36:58.371Z,5.60
2018-01-17T00:39:25.826Z,5.80
2018-01-17T00:41:53.292Z,5.37
2018-01-17T00:44:20.740Z,5.70
2018-01-17T00:46:48.221Z,6.20
2018-01-17T00:49:15.663Z,5.70
2018-01-17T00:51:43.121Z,6.20
2018-01-17T00:54:10.585Z,5.93
2018-01-17T00:56:38.035Z,6.47
2018-01-17T00:59:05.474Z,6.23
2018-01-17T01:01:32.950Z,7.00
2018-01-17T01:04:00.385Z,6.80
2018-01-17T01:06:27.833Z,6.80
2018-01-17T01:08:56.065Z,6.70
2018-01-17T01:11:24.277Z,6.20
2018-01-17T01:13:51.724Z,7.90
2018-01-17T01:16:19.190Z,6.90
2018-01-17T01:18:47.422Z,7.23
2018-01-17T01:21:14.869Z,7.40
2018-01-17T01:23:42.325Z,6.43
2018-01-17T01:26:09.780Z,7.33
2018-01-17T01:28:38.005Z,8.07
2018-01-17T01:31:05.448Z,8.00
2018-01-17T01:33:33.670Z,7.17
2018-01-17T01:36:01.896Z,7.00
2018-01-17T01:38:30.124Z,7.50
2018-01-17T01:40:58.331Z,7.70
2018-01-17T01:43:26.557Z,7.30
2018-01-17T01:45:54.001Z,7.60
2018-01-17T01:48:21.469Z,6.80
2018-01-17T01:50:48.918Z,7.27
2018-01-17T01:53:16.369Z,7.10
2018-01-17T01:55:43.829Z,7.30
2018-01-17T01:58:11.274Z,7.07
2018-01-17T02:00:38.738Z,6.37
2018-01-17T02:03:06.949Z,7.57
2018-01-17T02:05:34.403Z,6.33
2018-01-17T02:08:01.844Z,6.70
2018-01-17T02:10:29.298Z,6.20
2018-01-17T02:12:56.749Z,7.40
2018-01-17T02:15:24.204Z,6.97
2018-01-17T02:17:52.415Z,6.50
2018-01-17T02:20:19.865Z,5.87
2018-01-17T02:22:47.316Z,6.53
2018-01-17T02:25:14.769Z,6.33
2018-01-17T02:27:42.213Z,6.00
2018-01-17T02:30:09.664Z,6.07
2018-01-17T02:32:37.113Z,6.03
2018-01-17T02:35:04.557Z,6.30
2018-01-17T02:37:32.013Z,5.80
2018-01-17T02:40:11.969Z,6.10
2018-01-17T02:42:39.417Z,6.90
2018-01-17T02:45:07.632Z,6.10
2018-01-17T02:47:35.072Z,6.30
2018-01-17T02:50:02.529Z,5.80
2018-01-17T02:52:29.989Z,5.90
2018-01-17T02:54:57.436Z,6.90
2018-01-17T02:57:24.888Z,6.57
2018-01-17T02:59:52.345Z,6.43
2018-01-17T03:02:19.793Z,6.67
2018-01-17T03:04:47.241Z,6.60
2018-01-17T03:07:14.696Z,5.87
2018-01-17T03:09:42.134Z,7.10
2018-01-17T03:12:09.587Z,7.17
2018-01-17T03:14:37.032Z,6.53
2018-01-17T03:17:04.481Z,7.03
2018-01-17T03:19:31.924Z,7.07
2018-01-17T03:21:59.388Z,6.57
2018-01-17T03:24:26.839Z,6.63
2018-01-17T03:26:55.052Z,7.63
2018-01-17T03:29:23.264Z,7.33
2018-01-17T03:31:50.716Z,7.00
2018-01-17T03:34:18.167Z,8.07
2018-01-17T03:36:46.404Z,7.83
2018-01-17T03:39:13.847Z,7.73
2018-01-17T03:41:41.307Z,8.07
2018-01-17T03:44:08.745Z,7.43
2018-01-17T03:46:36.200Z,7.93
2018-01-17T03:49:03.668Z,7.23
2018-01-17T03:51:31.125Z,7.23
2018-01-17T03:53:58.576Z,7.20
2018-01-17T03:56:26.053Z,7.17
2018-01-17T03:58:53.496Z,7.27
2018-01-17T04:01:20.949Z,6.80
2018-01-17T04:03:48.401Z,7.30
2018-01-17T04:06:15.856Z,6.33
2018-01-17T04:08:43.320Z,6.70
2018-01-17T04:11:11.525Z,6.03
2018-01-17T04:13:38.976Z,7.20
2018-01-17T04:16:06.416Z,6.47
2018-01-17T04:18:34.650Z,6.47
2018-01-17T04:21:02.852Z,6.27
2018-01-17T04:23:30.309Z,6.67
2018-01-17T04:25:57.759Z,6.20
2018-01-17T04:28:25.973Z,6.23
2018-01-17T04:30:53.421Z,7.03
2018-01-17T04:33:20.889Z,6.20
2018-01-17T04:35:48.345Z,5.87
2018-01-17T04:38:15.809Z,6.80
2018-01-17T04:40:44.764Z,5.67
2018-01-17T04:43:12.205Z,6.03
2018-01-17T04:45:39.658Z,5.60
2018-01-17T04:48:07.106Z,4.53
2018-01-17T04:50:35.330Z,5.30
2018-01-17T04:53:02.780Z,5.17
2018-01-17T04:55:30.225Z,4.63
2018-01-17T04:57:57.674Z,4.73
2018-01-17T05:00:25.125Z,4.23
2018-01-17T05:02:52.596Z,4.47
2018-01-17T05:05:20.820Z,4.57
2018-01-17T05:07:48.260Z,4.40
2018-01-17T05:10:15.720Z,3.80
2018-01-17T05:12:43.165Z,4.40
2018-01-17T05:15:11.388Z,3.73
2018-01-17T05:17:39.593Z,3.00
2018-01-17T05:20:07.804Z,3.10
2018-01-17T05:22:35.249Z,2.50
2018-01-17T05:25:02.713Z,2.90
2018-01-17T05:27:30.153Z,2.10
2018-01-17T05:29:57.601Z,2.43
2018-01-17T05:32:25.049Z,2.50
2018-01-17T05:34:52.509Z,2.50
2018-01-17T05:37:19.968Z,2.23
2018-01-17T05:39:47.427Z,2.20
2018-01-17T05:42:14.875Z,2.50
2018-01-17T05:44:42.333Z,2.50
2018-01-17T05:47:09.789Z,2.40
2018-01-17T05:49:38.008Z,2.10
2018-01-17T05:52:05.464Z,2.30
2018-01-17T05:54:32.928Z,2.40
2018-01-17T05:57:00.382Z,2.30
2018-01-17T05:59:27.820Z,2.73
2018-01-17T06:01:55.268Z,2.37
2018-01-17T06:04:22.721Z,2.67
2018-01-17T06:06:50.173Z,2.20
2018-01-17T06:09:17.622Z,2.10
2018-01-17T06:11:45.079Z,2.70
2018-01-17T06:14:12.513Z,2.20
2018-01-17T06:16:40.745Z,2.23
2018-01-17T06:19:08.192Z,2.33
2018-01-17T06:21:35.643Z,2.20
2018-01-17T06:24:03.146Z,2.67
2018-01-17T06:26:30.548Z,2.57
2018-01-17T06:28:57.980Z,2.50
2018-01-17T06:31:26.194Z,2.47
2018-01-17T06:33:53.660Z,2.17
2018-01-17T06:36:21.096Z,2.53
2018-01-17T06:38:48.552Z,2.70
2018-01-17T06:41:15.993Z,2.43
2018-01-17T06:43:44.220Z,2.20
2018-01-17T06:46:11.664Z,2.50
2018-01-17T06:48:39.124Z,2.43
2018-01-17T06:51:06.561Z,2.60
2018-01-17T06:53:34.025Z,2.40
2018-01-17T06:56:01.477Z,2.10
2018-01-17T06:58:28.933Z,2.10
2018-01-17T07:00:56.378Z,2.37
2018-01-17T07:03:23.817Z,2.47
2018-01-17T07:05:51.254Z,2.33
2018-01-17T07:08:18.710Z,2.30
2018-01-17T07:10:46.141Z,2.97
2018-01-17T07:13:13.591Z,2.70
2018-01-17T07:15:41.034Z,2.90
2018-01-17T07:18:09.253Z,3.30
2018-01-17T07:20:36.705Z,3.07
2018-01-17T07:23:04.952Z,3.33
2018-01-17T07:25:32.396Z,3.10
2018-01-17T07:28:00.607Z,3.57
2018-01-17T07:30:28.853Z,2.97
2018-01-17T07:32:57.056Z,2.90
2018-01-17T07:35:24.514Z,3.57
2018-01-17T07:37:51.952Z,3.50
2018-01-17T07:40:19.409Z,3.40
2018-01-17T07:42:46.856Z,5.10
2018-01-17T07:45:14.317Z,3.50
2018-01-17T07:47:41.756Z,3.90
2018-01-17T07:50:09.969Z,3.10
2018-01-17T07:52:37.417Z,3.43
2018-01-17T07:55:04.872Z,3.40
2018-01-17T07:57:32.329Z,3.40
2018-01-17T07:59:59.780Z,2.47
2018-01-17T08:02:27.216Z,2.93
2018-01-17T08:04:54.673Z,2.40
2018-01-17T08:07:22.121Z,2.80
2018-01-17T08:09:49.573Z,2.57
2018-01-17T08:12:17.020Z,2.27
2018-01-17T08:14:45.241Z,2.10
2018-01-17T08:17:12.676Z,1.93
2018-01-17T08:19:40.137Z,1.90
2018-01-17T08:22:07.573Z,2.00
2018-01-17T08:24:35.021Z,2.10
2018-01-17T08:27:03.252Z,2.07
2018-01-17T08:29:30.696Z,1.83
2018-01-17T08:31:58.140Z,1.90
2018-01-17T08:34:25.585Z,1.90
2018-01-17T08:36:53.028Z,1.70
2018-01-17T08:39:21.256Z,1.90
2018-01-17T08:41:48.708Z,2.30
2018-01-17T08:44:16.145Z,1.70
2018-01-17T08:46:43.598Z,1.80
2018-01-17T08:49:11.040Z,1.80
2018-01-17T08:51:38.489Z,1.80
2018-01-17T08:54:06.702Z,1.70
2018-01-17T08:56:34.145Z,2.00
2018-01-17T08:59:01.588Z,2.20
2018-01-17T09:01:29.037Z,1.40
2018-01-17T09:03:56.476Z,1.60
2018-01-17T09:06:24.695Z,1.90
2018-01-17T09:08:52.896Z,1.30
2018-01-17T09:11:20.355Z,1.60
2018-01-17T09:13:47.793Z,1.30
2018-01-17T09:16:15.266Z,1.97
2018-01-17T09:18:42.701Z,1.50
2018-01-17T09:21:10.154Z,1.50
2018-01-17T09:23:37.597Z,2.20
2018-01-17T09:26:05.082Z,1.60
2018-01-17T09:28:32.533Z,1.40
2018-01-17T09:30:59.985Z,1.27
2018-01-17T09:33:27.441Z,1.77
2018-01-17T09:35:54.890Z,1.30
2018-01-17T09:38:22.348Z,1.60
2018-01-17T09:40:49.788Z,1.50
2018-01-17T09:43:17.249Z,1.60
2018-01-17T09:45:44.697Z,1.70
2018-01-17T09:48:12.916Z,1.70
2018-01-17T09:50:40.357Z,1.77
2018-01-17T09:53:07.813Z,1.30
2018-01-17T09:55:35.264Z,1.80
2018-01-17T09:58:02.719Z,1.53
2018-01-17T10:00:30.157Z,1.20
2018-01-17T10:02:58.377Z,1.57
2018-01-17T10:05:25.821Z,1.83
2018-01-17T10:07:53.278Z,1.77
2018-01-17T10:10:20.730Z,1.47
2018-01-17T10:12:48.188Z,1.73
2018-01-17T10:15:15.640Z,1.60
2018-01-17T10:17:43.090Z,1.50
2018-01-17T10:20:10.570Z,1.67
2018-01-17T10:22:38.008Z,1.60
2018-01-17T10:25:05.452Z,1.50
2018-01-17T10:27:32.900Z,1.50
2018-01-17T10:30:01.122Z,1.97
2018-01-17T10:32:28.568Z,1.50
2018-01-17T10:34:56.022Z,1.50
2018-01-17T10:37:23.469Z,1.63
2018-01-17T10:39:50.927Z,1.80
2018-01-17T10:42:18.376Z,1.53
2018-01-17T10:44:46.610Z,1.73
2018-01-17T10:47:14.068Z,1.37
2018-01-17T10:49:41.524Z,1.30
2018-01-17T10:52:08.989Z,1.30
2018-01-17T10:54:36.449Z,2.13
2018-01-17T10:57:03.932Z,1.70
2018-01-17T10:59:31.401Z,1.53
2018-01-17T11:01:58.848Z,1.67
2018-01-17T11:04:27.073Z,1.60
2018-01-17T11:06:54.517Z,1.63
2018-01-17T11:09:21.965Z,1.50
2018-01-17T11:11:49.475Z,1.80
2018-01-17T11:14:16.888Z,1.40
2018-01-17T11:16:44.340Z,2.23
2018-01-17T11:19:11.789Z,1.33
2018-01-17T11:21:39.241Z,1.30
2018-01-17T11:24:06.685Z,2.50
2018-01-17T11:26:34.137Z,1.30
2018-01-17T11:29:02.349Z,1.60
2018-01-17T11:31:29.801Z,1.47
2018-01-17T11:33:57.249Z,1.80
2018-01-17T11:36:24.709Z,2.50
2018-01-17T11:38:52.149Z,1.97
2018-01-17T11:41:19.613Z,1.60
2018-01-17T11:43:47.056Z,1.50
2018-01-17T11:46:15.276Z,2.20
2018-01-17T11:48:42.737Z,1.50
2018-01-17T11:51:10.189Z,1.20
2018-01-17T11:53:37.632Z,1.30
2018-01-17T11:56:05.097Z,1.50
2018-01-17T11:58:32.545Z,1.27
2018-01-17T12:01:00.792Z,1.33
2018-01-17T12:03:28.209Z,1.30
2018-01-17T12:05:55.653Z,1.43
2018-01-17T12:08:23.101Z,1.47
2018-01-17T12:10:50.556Z,1.60
2018-01-17T12:13:18.002Z,1.40
2018-01-17T12:15:45.461Z,1.20
2018-01-17T12:18:12.924Z,1.50
2018-01-17T12:20:40.374Z,1.47
2018-01-17T12:23:07.832Z,1.20
2018-01-17T12:25:35.273Z,1.87
2018-01-17T12:28:02.722Z,1.83
2018-01-17T12:30:30.924Z,1.80
2018-01-17T12:32:58.388Z,1.40
2018-01-17T12:35:25.838Z,1.73
2018-01-17T12:37:53.280Z,1.30
2018-01-17T12:40:20.725Z,1.70
2018-01-17T12:42:48.173Z,1.30
2018-01-17T12:45:16.378Z,1.50
2018-01-17T12:47:43.841Z,1.50
2018-01-17T12:50:11.280Z,1.30
2018-01-17T12:52:38.734Z,1.40
2018-01-17T12:55:06.952Z,1.40
2018-01-17T12:57:34.414Z,1.17
2018-01-17T13:00:01.853Z,1.43
2018-01-17T13:02:29.308Z,1.70
2018-01-17T13:04:56.756Z,1.27
2018-01-17T13:07:24.213Z,1.60
2018-01-17T13:09:51.668Z,1.50
2018-01-17T13:12:19.109Z,1.20
2018-01-17T13:14:46.558Z,1.47
2018-01-17T13:17:14.781Z,1.40
2018-01-17T13:19:43.005Z,1.43
2018-01-17T13:22:11.212Z,1.40
2018-01-17T13:24:38.671Z,1.10
2018-01-17T13:27:06.129Z,1.40
2018-01-17T13:29:33.596Z,1.40
2018-01-17T13:32:01.042Z,1.70
2018-01-17T13:34:28.492Z,1.30
2018-01-17T13:36:55.973Z,1.60
2018-01-17T13:39:23.393Z,1.30
2018-01-17T13:41:50.836Z,1.53
2018-01-17T13:44:19.061Z,1.47
2018-01-17T13:46:46.520Z,1.37
2018-01-17T13:49:13.983Z,1.37
2018-01-17T13:51:41.421Z,1.43
2018-01-17T13:54:08.872Z,1.70
2018-01-17T13:56:36.331Z,1.50
2018-01-17T13:59:03.785Z,1.73
2018-01-17T14:01:31.229Z,1.60
2018-01-17T14:03:58.705Z,1.20
2018-01-17T14:06:26.137Z,1.67
2018-01-17T14:08:54.357Z,1.37
2018-01-17T14:11:21.805Z,1.43
2018-01-17T14:13:49.244Z,1.63
2018-01-17T14:16:17.465Z,1.37
2018-01-17T14:18:44.909Z,1.40
2018-01-17T14:21:12.373Z,1.20
2018-01-17T14:23:39.836Z,1.17
2018-01-17T14:26:07.293Z,1.13
2018-01-17T14:28:34.753Z,1.30
2018-01-17T14:31:02.209Z,1.30
2018-01-17T14:33:29.660Z,1.63
2018-01-17T14:35:57.113Z,1.50
2018-01-17T14:38:24.557Z,1.90
2018-01-17T14:40:52.016Z,1.70
2018-01-17T14:43:19.451Z,1.57
2018-01-17T14:45:46.910Z,1.77
2018-01-17T14:48:15.129Z,1.63
2018-01-17T14:50:42.590Z,1.40
2018-01-17T14:53:10.028Z,1.27
2018-01-17T14:55:37.473Z,1.30
2018-01-17T14:58:04.925Z,1.33
2018-01-17T15:00:32.381Z,1.37
2018-01-17T15:02:59.837Z,1.53
2018-01-17T15:05:28.048Z,1.50
2018-01-17T15:07:55.504Z,1.27
2018-01-17T15:10:22.953Z,1.10
2018-01-17T15:12:50.410Z,1.67
2018-01-17T15:15:17.852Z,1.70
2018-01-17T15:17:45.313Z,1.43
2018-01-17T15:20:12.761Z,1.60
2018-01-17T15:22:40.213Z,1.60
2018-01-17T15:25:07.661Z,1.50
2018-01-17T15:27:35.121Z,1.33
2018-01-17T15:30:02.577Z,1.57
2018-01-17T15:32:30.040Z,1.30
2018-01-17T15:34:57.493Z,1.60
2018-01-17T15:37:25.765Z,1.67
2018-01-17T15:39:53.214Z,1.60
2018-01-17T15:42:20.678Z,1.57
2018-01-17T15:44:48.121Z,1.67
2018-01-17T15:47:15.577Z,1.23
2018-01-17T15:49:43.789Z,1.20
2018-01-17T15:52:11.241Z,1.50
2018-01-17T15:54:38.688Z,1.50
2018-01-17T15:57:06.141Z,1.50
2018-01-17T15:59:33.594Z,1.53
2018-01-17T16:02:01.042Z,1.50
2018-01-17T16:04:28.493Z,1.50
2018-01-17T16:06:55.941Z,1.83
2018-01-17T16:09:24.169Z,1.87
2018-01-17T16:11:51.613Z,2.00
2018-01-17T16:14:19.068Z,2.20
2018-01-17T16:16:46.521Z,2.17
2018-01-17T16:19:13.977Z,2.13
2018-01-17T16:21:41.431Z,2.00
2018-01-17T16:24:08.888Z,1.77
2018-01-17T16:26:36.334Z,1.70
2018-01-17T16:29:03.786Z,1.67
2018-01-17T16:31:31.232Z,1.73
2018-01-17T16:33:59.461Z,1.73
2018-01-17T16:36:26.904Z,1.87
2018-01-17T16:38:54.369Z,1.60
2018-01-17T16:41:21.817Z,2.07
2018-01-17T16:43:49.272Z,1.77
2018-01-17T16:46:16.729Z,1.80
2018-01-17T16:48:44.190Z,1.87
2018-01-17T16:51:11.648Z,1.60
2018-01-17T16:53:39.105Z,1.80
2018-01-17T16:56:06.562Z,1.60
2018-01-17T16:58:34.009Z,1.40
2018-01-17T17:01:01.472Z,1.40
2018-01-17T17:03:29.690Z,1.40
2018-01-17T17:05:57.144Z,1.40
2018-01-17T17:08:24.582Z,1.50
2018-01-17T17:10:52.033Z,1.57
2018-01-17T17:13:19.482Z,1.40
2018-01-17T17:15:46.947Z,1.43
2018-01-17T17:18:14.418Z,1.70
2018-01-17T17:20:41.885Z,1.77
2018-01-17T17:23:09.333Z,1.43
2018-01-17T17:25:36.794Z,1.60
2018-01-17T17:28:04.235Z,1.63
2018-01-17T17:30:31.692Z,1.87
2018-01-17T17:32:59.144Z,1.43
2018-01-17T17:35:26.592Z,1.63
2018-01-17T17:37:54.053Z,1.33
2018-01-17T17:40:21.510Z,1.70
2018-01-17T17:42:48.958Z,1.30
2018-01-17T17:45:16.416Z,1.90
2018-01-17T17:47:43.882Z,1.40
2018-01-17T17:50:12.102Z,1.57
2018-01-17T17:52:39.536Z,2.13
2018-01-17T17:55:06.985Z,1.70
2018-01-17T17:57:34.429Z,1.70
2018-01-17T18:00:01.873Z,2.27
2018-01-17T18:02:29.328Z,1.70
2018-01-17T18:04:56.771Z,1.73
2018-01-17T18:07:24.225Z,1.57
2018-01-17T18:09:51.665Z,1.53
2018-01-17T18:12:19.877Z,1.90
2018-01-17T18:14:47.312Z,1.80
2018-01-17T18:17:14.758Z,1.73
2018-01-17T18:19:42.967Z,1.60
2018-01-17T18:22:10.426Z,1.80
2018-01-17T18:24:37.884Z,1.53
2018-01-17T18:27:05.348Z,1.63
2018-01-17T18:29:32.797Z,2.30
2018-01-17T18:32:01.021Z,2.70
2018-01-17T18:34:28.469Z,3.07
2018-01-17T18:36:55.953Z,2.40
2018-01-17T18:39:23.422Z,2.80
2018-01-17T18:41:50.866Z,3.40
2018-01-17T18:44:19.079Z,3.80
2018-01-17T18:46:46.612Z,3.27
2018-01-17T18:49:14.112Z,3.23
2018-01-17T18:51:41.625Z,3.93
2018-01-17T18:54:09.069Z,3.80
2018-01-17T18:56:36.510Z,4.20
2018-01-17T18:59:03.961Z,3.57
2018-01-17T19:01:31.400Z,3.77
2018-01-17T19:03:58.860Z,3.23
2018-01-17T19:06:26.308Z,3.40
2018-01-17T19:08:53.801Z,3.40
2018-01-17T19:11:21.256Z,3.73
2018-01-17T19:13:49.472Z,3.67
2018-01-17T19:16:16.911Z,3.20
2018-01-17T19:18:45.128Z,4.33
2018-01-17T19:21:12.589Z,3.07
2018-01-17T19:23:40.034Z,3.00
2018-01-17T19:26:07.483Z,3.20
2018-01-17T19:28:34.926Z,2.80
2018-01-17T19:31:02.365Z,3.00
2018-01-17T19:33:29.973Z,3.43
2018-01-17T19:35:57.430Z,2.80
2018-01-17T19:38:24.889Z,2.60
2018-01-17T19:40:52.333Z,2.33
2018-01-17T19:43:19.783Z,2.30
2018-01-17T19:45:47.225Z,4.00
2018-01-17T19:48:14.676Z,2.07
2018-01-17T19:50:42.877Z,2.33
2018-01-17T19:53:11.081Z,2.50
2018-01-17T19:55:38.532Z,2.43
2018-01-17T19:58:06.736Z,2.20
2018-01-17T20:00:34.209Z,2.87
2018-01-17T20:03:01.753Z,2.00
2018-01-17T20:05:29.190Z,2.47
2018-01-17T20:07:56.637Z,2.70
2018-01-17T20:10:24.096Z,2.00
2018-01-17T20:12:51.536Z,1.90
2018-01-17T20:15:19.748Z,2.83
2018-01-17T20:17:47.202Z,3.00
2018-01-17T20:20:14.681Z,3.07
2018-01-17T20:22:48.444Z,2.77
2018-01-17T20:25:15.895Z,3.23
2018-01-17T20:27:43.333Z,3.87
2018-01-17T20:30:10.805Z,3.57
2018-01-17T20:32:39.006Z,3.60
2018-01-17T20:35:06.494Z,3.13
2018-01-17T20:37:34.704Z,3.67
2018-01-17T20:40:02.153Z,3.43
2018-01-17T20:42:29.596Z,4.37
2018-01-17T20:44:57.041Z,4.03
2018-01-17T20:47:25.260Z,4.37
2018-01-17T20:49:52.709Z,4.47
2018-01-17T20:52:20.948Z,4.40
2018-01-17T20:54:48.389Z,4.50
2018-01-17T20:57:16.605Z,4.40
2018-01-17T20:59:44.056Z,4.33
2018-01-17T21:02:12.282Z,4.20
2018-01-17T21:04:39.730Z,4.23
2018-01-17T21:07:07.167Z,4.30
2018-01-17T21:09:34.621Z,4.23
2018-01-17T21:12:02.077Z,4.23
2018-01-17T21:14:29.584Z,4.80
2018-01-17T21:16:57.753Z,4.00
2018-01-17T21:19:25.207Z,5.00
2018-01-17T21:21:53.199Z,3.60
2018-01-17T21:24:20.653Z,4.40
2018-01-17T21:26:48.101Z,4.10
2018-01-17T21:29:16.328Z,4.20
2018-01-17T21:31:43.772Z,4.57
2018-01-17T21:34:11.225Z,4.57
2018-01-17T21:36:38.665Z,4.20
2018-01-17T21:39:07.661Z,4.60
2018-01-17T21:41:35.872Z,5.40
2018-01-17T21:44:09.641Z,4.27
2018-01-17T21:46:37.884Z,4.47
2018-01-17T21:49:05.350Z,4.97
2018-01-17T21:51:32.795Z,4.47
2018-01-17T21:54:00.241Z,4.90
2018-01-17T21:56:27.682Z,4.03
2018-01-17T21:58:55.141Z,3.80
2018-01-17T22:01:22.576Z,3.70
2018-01-17T22:03:50.793Z,3.50
2018-01-17T22:06:18.240Z,3.17
2018-01-17T22:08:45.719Z,3.17
2018-01-17T22:11:13.160Z,3.40
2018-01-17T22:13:40.616Z,2.93
2018-01-17T22:16:08.069Z,2.90
2018-01-17T22:18:35.522Z,3.30
2018-01-17T22:21:03.728Z,3.40
2018-01-17T22:23:31.210Z,3.37
2018-01-17T22:25:59.422Z,2.83
2018-01-17T22:28:27.648Z,2.63
2018-01-17T22:30:55.101Z,3.00
2018-01-17T22:33:22.553Z,3.90
2018-01-17T22:35:50.013Z,4.17
2018-01-17T22:38:17.456Z,3.93
2018-01-17T22:40:44.948Z,3.40
2018-01-17T22:43:12.381Z,3.53
2018-01-17T22:45:39.829Z,3.80
2018-01-17T22:48:07.273Z,4.03
2018-01-17T22:50:34.747Z,3.60
2018-01-17T22:53:02.209Z,4.07
2018-01-17T22:55:29.662Z,4.10
2018-01-17T22:57:57.877Z,4.80
2018-01-17T23:00:26.121Z,3.87
2018-01-17T23:02:53.573Z,4.60
2018-01-17T23:05:22.232Z,4.30
2018-01-17T23:07:50.433Z,4.33
2018-01-17T23:10:18.680Z,4.20
2018-01-17T23:12:46.120Z,3.97
2018-01-17T23:15:13.592Z,4.47
2018-01-17T23:17:41.037Z,3.73
2018-01-17T23:20:09.297Z,3.97
2018-01-17T23:22:37.497Z,3.80
2018-01-17T23:25:05.718Z,4.17
2018-01-17T23:27:33.173Z,3.83
2018-01-17T23:30:00.699Z,4.13
2018-01-17T23:32:28.156Z,3.63
2018-01-17T23:34:55.604Z,3.77
2018-01-17T23:37:23.935Z,4.07
2018-01-17T23:39:51.389Z,3.40
2018-01-17T23:42:19.450Z,3.37
2018-01-17T23:44:46.891Z,3.33
2018-01-17T23:47:14.352Z,3.30
2018-01-17T23:49:41.797Z,3.40
2018-01-17T23:52:10.280Z,2.90
2018-01-17T23:54:37.725Z,3.30
2018-01-17T23:57:05.168Z,3.17
2018-01-17T23:59:32.628Z,3.00
